SEA weather

Seattle Tacoma International Airport
Seattle, Washington, United States

Public forecast

Using degrees Fahrenheit for public forecast. Weather courtesy of forecast.io.

METAR (pilot weather report)

Retrieved 2017/08/18 01:53 UTC (28 minutes ago):

KSEA 180153Z VRB03KT 10SM FEW040 FEW250 23/12 A3014 RMK AO2 SLP211 T02330122

TAF (pilot weather forecast)

Forecast is more than 12 hours old.

Retrieved 2017/08/17 00:45 UTC (1 day ago):

TAF KSEA 172342Z 1800/1906 25005KT P6SM FEW035 FM180300 29005KT P6SM SCT250 FM180600 02004KT P6SM BKN250 FM181000 19005KT P6SM OVC022 FM182100 22007KT P6SM BKN035 BKN050 FM190000 26007KT P6SM BKN035 BKN050